Thunder radar more information blitzortung!


Radar de pluja more information rain snow radar


Visita la nostra xarxa de llocs de meteo:

Template documentation
and downloads

And another site



Extreme low temperature From: 13-12-2017 09:00 Until: 09:59 warning for: Extreme low temperature Level: Yellow info button

Pagina Historial Weather Underground text

Diari Resum Setembre 3, 2017 Unitats:  Tant    Imperial   Mètric
« Previous Dia
SegĂźent Dia »
Diari Setmana Mensual Anual Personalitzada
  Maxima: Minima: Media:
Temperatura: 83.5 °F /  28.6 °C 59.9 °F /  15.5 °C 73 °F /  22.8 °C
Punt de rosada: 62.1 °F /  16.7 °C 50.7 °F /  10.4 °C 56.1 °F /  13.4 °C
Humitat: 87 % 36 % 58 %
Wind Speed: 9.8 mph /  15.8 km/h - 2.9 mph /  4.7 km/h
RĂ fegues de vent: 10 mph /  16.1 km/h - -
Vent:- - SSE
Pression baro: 30.1 in /  1018.8 hPa 29.8 in /  1010.7 hPa -
Precipitacions: 0 in /  0.0 mm    
Historical Graphs
 
 
Dades de taula per Setembre 3, 2017
Temps Temperatura Punt de rosada Pression baro Vent Wind Speed RĂ fegues de vent Humitat Rainfall Rate (Hourly)
00:01 67.5 °F /  19.7 °C 51.6 °F /  10.9 °C 30.1 in /  1018.8 hPa NNW 4.6 mph /  7.4 km/h 4.6 mph /  7.4 km/h 57 % 0 in /  0.0 mm
00:05 61.2 °F /  16.2 °C 50.9 °F /  10.5 °C 30 in /  1016.8 hPa Calm   2 mph /  3.2 km/h 69 % 0 in /  0.0 mm
00:06 67.5 °F /  19.7 °C 51.6 °F /  10.9 °C 30.1 in /  1018.8 hPa NE 3.5 mph /  5.6 km/h 3.5 mph /  5.6 km/h 57 % 0 in /  0.0 mm
00:11 67.5 °F /  19.7 °C 51.6 °F /  10.9 °C 30.1 in /  1018.8 hPa NNE 4.3 mph /  6.9 km/h 4.3 mph /  6.9 km/h 57 % 0 in /  0.0 mm
00:15 61.2 °F /  16.2 °C 51.3 °F /  10.7 °C 30 in /  1016.8 hPa Calm     70 % 0 in /  0.0 mm
00:25 61.2 °F /  16.2 °C 51.3 °F /  10.7 °C 30 in /  1016.8 hPa Calm     70 % 0 in /  0.0 mm
00:35 61 °F /  16.1 °C 51.4 °F /  10.8 °C 30 in /  1016.8 hPa Calm     71 % 0 in /  0.0 mm
00:45 61 °F /  16.1 °C 51.4 °F /  10.8 °C 30 in /  1016.8 hPa Calm     71 % 0 in /  0.0 mm
00:55 61 °F /  16.1 °C 51.4 °F /  10.8 °C 30 in /  1016.8 hPa Calm     71 % 0 in /  0.0 mm
01:05 61.2 °F /  16.2 °C 52.2 °F /  11.2 °C 30 in /  1016.8 hPa Calm     72 % 0 in /  0.0 mm
01:15 61.2 °F /  16.2 °C 51.6 °F /  10.9 °C 30 in /  1016.8 hPa Calm   1 mph /  1.6 km/h 71 % 0 in /  0.0 mm
01:25 61 °F /  16.1 °C 52 °F /  11.1 °C 30 in /  1015.8 hPa Calm   1 mph /  1.6 km/h 72 % 0 in /  0.0 mm
01:35 61 °F /  16.1 °C 51.4 °F /  10.8 °C 30 in /  1015.8 hPa Calm   1 mph /  1.6 km/h 71 % 0 in /  0.0 mm
01:45 61 °F /  16.1 °C 52 °F /  11.1 °C 30 in /  1015.8 hPa Calm   1 mph /  1.6 km/h 72 % 0 in /  0.0 mm
01:55 61 °F /  16.1 °C 52 °F /  11.1 °C 30 in /  1015.8 hPa Calm   2 mph /  3.2 km/h 72 % 0 in /  0.0 mm
02:05 60.8 °F /  16.0 °C 51.6 °F /  10.9 °C 30 in /  1015.8 hPa Calm   1 mph /  1.6 km/h 72 % 0 in /  0.0 mm
02:15 60.3 °F /  15.7 °C 50.7 °F /  10.4 °C 30 in /  1015.8 hPa ENE 1 mph /  1.6 km/h 2 mph /  3.2 km/h 71 % 0 in /  0.0 mm
02:25 60.1 °F /  15.6 °C 51.4 °F /  10.8 °C 30 in /  1015.8 hPa Calm   1 mph /  1.6 km/h 73 % 0 in /  0.0 mm
02:35 59.9 °F /  15.5 °C 51.3 °F /  10.7 °C 30 in /  1015.8 hPa Calm     73 % 0 in /  0.0 mm
02:45 60.1 °F /  15.6 °C 51.4 °F /  10.8 °C 30 in /  1015.8 hPa WSW 1 mph /  1.6 km/h 1 mph /  1.6 km/h 73 % 0 in /  0.0 mm
02:55 60.1 °F /  15.6 °C 51.8 °F /  11.0 °C 30 in /  1015.8 hPa Calm     74 % 0 in /  0.0 mm
03:05 60.6 °F /  15.9 °C 52 °F /  11.1 °C 30 in /  1015.8 hPa WSW 1 mph /  1.6 km/h 1 mph /  1.6 km/h 73 % 0 in /  0.0 mm
03:15 60.8 °F /  16.0 °C 52.2 °F /  11.2 °C 30 in /  1015.8 hPa Calm     73 % 0 in /  0.0 mm
03:25 61.2 °F /  16.2 °C 52.2 °F /  11.2 °C 30 in /  1015.8 hPa SW 1 mph /  1.6 km/h 1 mph /  1.6 km/h 72 % 0 in /  0.0 mm
03:35 61.3 °F /  16.3 °C 52.2 °F /  11.2 °C 30 in /  1015.8 hPa SW 2 mph /  3.2 km/h 2 mph /  3.2 km/h 72 % 0 in /  0.0 mm
03:45 62.2 °F /  16.8 °C 53.4 °F /  11.9 °C 30 in /  1015.8 hPa Calm   1 mph /  1.6 km/h 73 % 0 in /  0.0 mm
03:55 62.2 °F /  16.8 °C 52.7 °F /  11.5 °C 30 in /  1015.8 hPa SSW 1 mph /  1.6 km/h 2 mph /  3.2 km/h 71 % 0 in /  0.0 mm
04:05 63.1 °F /  17.3 °C 53.2 °F /  11.8 °C 30 in /  1015.8 hPa SSW 1 mph /  1.6 km/h 1 mph /  1.6 km/h 70 % 0 in /  0.0 mm
04:15 63.9 °F /  17.7 °C 53.4 °F /  11.9 °C 30 in /  1015.8 hPa SW 1 mph /  1.6 km/h 1 mph /  1.6 km/h 69 % 0 in /  0.0 mm
04:25 64.8 °F /  18.2 °C 54 °F /  12.2 °C 30 in /  1015.8 hPa Calm   2 mph /  3.2 km/h 68 % 0 in /  0.0 mm
04:35 65.5 °F /  18.6 °C 54.7 °F /  12.6 °C 30 in /  1015.8 hPa East 1 mph /  1.6 km/h 1 mph /  1.6 km/h 68 % 0 in /  0.0 mm
04:45 65.7 °F /  18.7 °C 54.3 °F /  12.4 °C 30 in /  1015.8 hPa NNE 1 mph /  1.6 km/h 4 mph /  6.4 km/h 67 % 0 in /  0.0 mm
04:55 66 °F /  18.9 °C 54.7 °F /  12.6 °C 30 in /  1015.8 hPa West 2 mph /  3.2 km/h 2 mph /  3.2 km/h 67 % 0 in /  0.0 mm
05:05 67.1 °F /  19.5 °C 55.4 °F /  13.0 °C 30 in /  1015.8 hPa SW 1 mph /  1.6 km/h 3 mph /  4.8 km/h 66 % 0 in /  0.0 mm
05:15 67.3 °F /  19.6 °C 55 °F /  12.8 °C 30 in /  1015.8 hPa SW 1 mph /  1.6 km/h 2 mph /  3.2 km/h 65 % 0 in /  0.0 mm
05:25 68 °F /  20.0 °C 54.9 °F /  12.7 °C 30 in /  1015.8 hPa SW 2 mph /  3.2 km/h 2 mph /  3.2 km/h 63 % 0 in /  0.0 mm
05:35 69.1 °F /  20.6 °C 55.9 °F /  13.3 °C 30 in /  1015.8 hPa NNE 1 mph /  1.6 km/h 2 mph /  3.2 km/h 63 % 0 in /  0.0 mm
05:45 69.1 °F /  20.6 °C 55.6 °F /  13.1 °C 30 in /  1015.8 hPa NW 2 mph /  3.2 km/h 3 mph /  4.8 km/h 62 % 0 in /  0.0 mm
05:55 69.6 °F /  20.9 °C 55.9 °F /  13.3 °C 30 in /  1015.8 hPa WSW 1 mph /  1.6 km/h 3 mph /  4.8 km/h 62 % 0 in /  0.0 mm
06:05 70.7 °F /  21.5 °C 56.7 °F /  13.7 °C 30 in /  1015.8 hPa SSW 2 mph /  3.2 km/h 3 mph /  4.8 km/h 61 % 0 in /  0.0 mm
06:20 71.4 °F /  21.9 °C 57.4 °F /  14.1 °C 30 in /  1015.8 hPa SSE 2 mph /  3.2 km/h 2 mph /  3.2 km/h 61 % 0 in /  0.0 mm
11:22 71.6 °F /  22.0 °C 57 °F /  13.9 °C 30 in /  1015.8 hPa ESE 1.2 mph /  1.9 km/h 1.6 mph /  2.6 km/h 60 % 0 in /  0.0 mm
11:23 71.6 °F /  22.0 °C 57 °F /  13.9 °C 30 in /  1015.8 hPa SE 3.1 mph /  5.0 km/h 3.1 mph /  5.0 km/h 60 % 0 in /  0.0 mm
11:24 71.4 °F /  21.9 °C 56.8 °F /  13.8 °C 30 in /  1015.8 hPa SE 3.5 mph /  5.6 km/h 3.5 mph /  5.6 km/h 60 % 0 in /  0.0 mm
11:29 72.1 °F /  22.3 °C 57.6 °F /  14.2 °C 30 in /  1015.8 hPa WSW 2.6 mph /  4.2 km/h 2.6 mph /  4.2 km/h 60 % 0 in /  0.0 mm
11:34 72.5 °F /  22.5 °C 57.4 °F /  14.1 °C 30 in /  1015.8 hPa SSE 4.7 mph /  7.6 km/h 4.7 mph /  7.6 km/h 59 % 0 in /  0.0 mm
11:39 72.9 °F /  22.7 °C 57.2 °F /  14.0 °C 30 in /  1015.8 hPa East 3.1 mph /  5.0 km/h 3.1 mph /  5.0 km/h 58 % 0 in /  0.0 mm
11:44 72.7 °F /  22.6 °C 57 °F /  13.9 °C 30 in /  1015.8 hPa ENE 3.5 mph /  5.6 km/h 3.5 mph /  5.6 km/h 58 % 0 in /  0.0 mm
11:49 72.7 °F /  22.6 °C 56.7 °F /  13.7 °C 30 in /  1015.8 hPa ENE 2.6 mph /  4.2 km/h 2.6 mph /  4.2 km/h 57 % 0 in /  0.0 mm
11:54 72.9 °F /  22.7 °C 56.1 °F /  13.4 °C 30 in /  1015.8 hPa ESE 3.5 mph /  5.6 km/h 3.5 mph /  5.6 km/h 56 % 0 in /  0.0 mm
11:59 73.2 °F /  22.9 °C 56.7 °F /  13.7 °C 30 in /  1015.8 hPa WSW 3.6 mph /  5.8 km/h 3.6 mph /  5.8 km/h 56 % 0 in /  0.0 mm
12:04 74.3 °F /  23.5 °C 55.6 °F /  13.1 °C 30 in /  1015.8 hPa SSE 3.5 mph /  5.6 km/h 3.5 mph /  5.6 km/h 52 % 0 in /  0.0 mm
12:09 74.3 °F /  23.5 °C 55.6 °F /  13.1 °C 30 in /  1014.8 hPa North 2.3 mph /  3.7 km/h 2.3 mph /  3.7 km/h 52 % 0 in /  0.0 mm
12:14 74.7 °F /  23.7 °C 55.2 °F /  12.9 °C 30 in /  1014.8 hPa ENE 1.4 mph /  2.3 km/h 1.4 mph /  2.3 km/h 51 % 0 in /  0.0 mm
12:19 75.2 °F /  24.0 °C 55.2 °F /  12.9 °C 30 in /  1014.8 hPa Calm     50 % 0 in /  0.0 mm
12:24 75.4 °F /  24.1 °C 54.9 °F /  12.7 °C 30 in /  1015.8 hPa SSW 3.5 mph /  5.6 km/h 3.5 mph /  5.6 km/h 49 % 0 in /  0.0 mm
12:29 75.4 °F /  24.1 °C 54.9 °F /  12.7 °C 30 in /  1015.8 hPa SW 2.3 mph /  3.7 km/h 2.3 mph /  3.7 km/h 49 % 0 in /  0.0 mm
12:34 75.4 °F /  24.1 °C 54.3 °F /  12.4 °C 30 in /  1015.8 hPa SW 4.6 mph /  7.4 km/h 4.6 mph /  7.4 km/h 48 % 0 in /  0.0 mm
12:39 75.4 °F /  24.1 °C 53.8 °F /  12.1 °C 30 in /  1014.8 hPa SSE 3.5 mph /  5.6 km/h 3.5 mph /  5.6 km/h 47 % 0 in /  0.0 mm
12:44 74.8 °F /  23.8 °C 53.2 °F /  11.8 °C 30 in /  1014.8 hPa South 4.6 mph /  7.4 km/h 4.6 mph /  7.4 km/h 47 % 0 in /  0.0 mm
12:49 74.8 °F /  23.8 °C 53.8 °F /  12.1 °C 30 in /  1014.8 hPa SW 4.6 mph /  7.4 km/h 4.6 mph /  7.4 km/h 48 % 0 in /  0.0 mm
12:54 75.4 °F /  24.1 °C 53.8 °F /  12.1 °C 30 in /  1014.8 hPa South 2.4 mph /  3.9 km/h 2.4 mph /  3.9 km/h 47 % 0 in /  0.0 mm
12:59 75 °F /  23.9 °C 53.4 °F /  11.9 °C 30 in /  1014.8 hPa SE 4.6 mph /  7.4 km/h 4.6 mph /  7.4 km/h 47 % 0 in /  0.0 mm
13:04 74.8 °F /  23.8 °C 52.7 °F /  11.5 °C 30 in /  1014.8 hPa South 4.6 mph /  7.4 km/h 4.6 mph /  7.4 km/h 46 % 0 in /  0.0 mm
13:09 74.8 °F /  23.8 °C 52.7 °F /  11.5 °C 29.9 in /  1013.8 hPa SE 5.8 mph /  9.3 km/h 5.8 mph /  9.3 km/h 46 % 0 in /  0.0 mm
13:14 75.2 °F /  24.0 °C 53.1 °F /  11.7 °C 29.9 in /  1013.8 hPa WSW 3.5 mph /  5.6 km/h 3.5 mph /  5.6 km/h 46 % 0 in /  0.0 mm
13:19 75.4 °F /  24.1 °C 52.5 °F /  11.4 °C 29.9 in /  1013.8 hPa SSW 3.5 mph /  5.6 km/h 3.5 mph /  5.6 km/h 45 % 0 in /  0.0 mm
13:24 76.1 °F /  24.5 °C 53.2 °F /  11.8 °C 29.9 in /  1013.8 hPa WSW 4.6 mph /  7.4 km/h 4.6 mph /  7.4 km/h 45 % 0 in /  0.0 mm
13:29 76.5 °F /  24.7 °C 52.3 °F /  11.3 °C 29.9 in /  1013.8 hPa SW 1.2 mph /  1.9 km/h 1.2 mph /  1.9 km/h 43 % 0 in /  0.0 mm
13:34 77 °F /  25.0 °C 52.9 °F /  11.6 °C 29.9 in /  1013.8 hPa SSW 3.5 mph /  5.6 km/h 3.5 mph /  5.6 km/h 43 % 0 in /  0.0 mm
13:39 77.2 °F /  25.1 °C 52.9 °F /  11.6 °C 29.9 in /  1013.8 hPa WSW 3.8 mph /  6.1 km/h 3.8 mph /  6.1 km/h 43 % 0 in /  0.0 mm
13:44 77.4 °F /  25.2 °C 53.1 °F /  11.7 °C 29.9 in /  1013.8 hPa South 8.1 mph /  13.0 km/h 8.1 mph /  13.0 km/h 43 % 0 in /  0.0 mm
13:49 77.4 °F /  25.2 °C 52.5 °F /  11.4 °C 29.9 in /  1013.8 hPa SW 4.6 mph /  7.4 km/h 4.6 mph /  7.4 km/h 42 % 0 in /  0.0 mm
13:54 77.2 °F /  25.1 °C 52.3 °F /  11.3 °C 29.9 in /  1013.8 hPa WSW 4 mph /  6.4 km/h 4 mph /  6.4 km/h 42 % 0 in /  0.0 mm
13:59 77.4 °F /  25.2 °C 51.8 °F /  11.0 °C 29.9 in /  1013.8 hPa WSW 4.6 mph /  7.4 km/h 4.6 mph /  7.4 km/h 41 % 0 in /  0.0 mm
14:04 77.9 °F /  25.5 °C 52.3 °F /  11.3 °C 29.9 in /  1013.8 hPa SSW 2.3 mph /  3.7 km/h 2.3 mph /  3.7 km/h 41 % 0 in /  0.0 mm
14:09 78.1 °F /  25.6 °C 52.5 °F /  11.4 °C 29.9 in /  1013.8 hPa WSW 3.5 mph /  5.6 km/h 3.5 mph /  5.6 km/h 41 % 0 in /  0.0 mm
14:14 78.6 °F /  25.9 °C 52.9 °F /  11.6 °C 29.9 in /  1013.8 hPa SW 2.3 mph /  3.7 km/h 2.3 mph /  3.7 km/h 41 % 0 in /  0.0 mm
14:19 79.2 °F /  26.2 °C 53.4 °F /  11.9 °C 29.9 in /  1013.8 hPa SSW 3.5 mph /  5.6 km/h 3.5 mph /  5.6 km/h 41 % 0 in /  0.0 mm
14:24 79.9 °F /  26.6 °C 54.1 °F /  12.3 °C 29.9 in /  1013.8 hPa SSW 6.2 mph /  10.0 km/h 6.2 mph /  10.0 km/h 41 % 0 in /  0.0 mm
14:29 78.8 °F /  26.0 °C 53.1 °F /  11.7 °C 29.9 in /  1013.8 hPa West 2.3 mph /  3.7 km/h 2.3 mph /  3.7 km/h 41 % 0 in /  0.0 mm
14:34 79 °F /  26.1 °C 52.5 °F /  11.4 °C 29.9 in /  1013.8 hPa West 5.6 mph /  9.0 km/h 5.6 mph /  9.0 km/h 40 % 0 in /  0.0 mm
14:39 79.2 °F /  26.2 °C 52.2 °F /  11.2 °C 29.9 in /  1012.8 hPa WSW 2.3 mph /  3.7 km/h 2.3 mph /  3.7 km/h 39 % 0 in /  0.0 mm
14:44 79.3 °F /  26.3 °C 52.2 °F /  11.2 °C 29.9 in /  1012.8 hPa SW 2.4 mph /  3.9 km/h 2.4 mph /  3.9 km/h 39 % 0 in /  0.0 mm
14:49 79.7 °F /  26.5 °C 53.2 °F /  11.8 °C 29.9 in /  1012.8 hPa SSW 3.5 mph /  5.6 km/h 3.5 mph /  5.6 km/h 40 % 0 in /  0.0 mm
14:54 79.9 °F /  26.6 °C 53.4 °F /  11.9 °C 29.9 in /  1012.8 hPa SW 3.5 mph /  5.6 km/h 3.5 mph /  5.6 km/h 40 % 0 in /  0.0 mm
14:59 80.2 °F /  26.8 °C 53.1 °F /  11.7 °C 29.9 in /  1012.8 hPa WSW 2.3 mph /  3.7 km/h 2.3 mph /  3.7 km/h 39 % 0 in /  0.0 mm
15:04 80.2 °F /  26.8 °C 52.3 °F /  11.3 °C 29.9 in /  1012.8 hPa SSE 2.3 mph /  3.7 km/h 2.3 mph /  3.7 km/h 38 % 0 in /  0.0 mm
15:09 79.7 °F /  26.5 °C 51.8 °F /  11.0 °C 29.9 in /  1012.8 hPa East 2.6 mph /  4.2 km/h 2.6 mph /  4.2 km/h 38 % 0 in /  0.0 mm
15:14 80.4 °F /  26.9 °C 52.5 °F /  11.4 °C 29.9 in /  1012.8 hPa WSW 3.5 mph /  5.6 km/h 3.5 mph /  5.6 km/h 38 % 0 in /  0.0 mm
15:19 81.3 °F /  27.4 °C 52.5 °F /  11.4 °C 29.9 in /  1012.8 hPa WSW 2.3 mph /  3.7 km/h 2.3 mph /  3.7 km/h 37 % 0 in /  0.0 mm
15:24 81.1 °F /  27.3 °C 51.6 °F /  10.9 °C 29.9 in /  1011.7 hPa SSE 4.6 mph /  7.4 km/h 4.6 mph /  7.4 km/h 36 % 0 in /  0.0 mm
15:29 81.1 °F /  27.3 °C 51.6 °F /  10.9 °C 29.9 in /  1011.7 hPa ESE 3.8 mph /  6.1 km/h 3.8 mph /  6.1 km/h 36 % 0 in /  0.0 mm
15:34 81.9 °F /  27.7 °C 53.1 °F /  11.7 °C 29.9 in /  1011.7 hPa SSE 5.8 mph /  9.3 km/h 5.8 mph /  9.3 km/h 37 % 0 in /  0.0 mm
15:39 82.9 °F /  28.3 °C 54 °F /  12.2 °C 29.9 in /  1011.7 hPa West 3.5 mph /  5.6 km/h 3.5 mph /  5.6 km/h 37 % 0 in /  0.0 mm
15:44 82.9 °F /  28.3 °C 54 °F /  12.2 °C 29.9 in /  1011.7 hPa SW 2.9 mph /  4.7 km/h 2.9 mph /  4.7 km/h 37 % 0 in /  0.0 mm
15:49 83.1 °F /  28.4 °C 54.1 °F /  12.3 °C 29.9 in /  1011.7 hPa WSW 4.7 mph /  7.6 km/h 4.7 mph /  7.6 km/h 37 % 0 in /  0.0 mm
15:54 82.9 °F /  28.3 °C 54 °F /  12.2 °C 29.9 in /  1011.7 hPa SSW 4.7 mph /  7.6 km/h 4.7 mph /  7.6 km/h 37 % 0 in /  0.0 mm
15:59 82.2 °F /  27.9 °C 53.4 °F /  11.9 °C 29.9 in /  1011.7 hPa WSW 4 mph /  6.4 km/h 4 mph /  6.4 km/h 37 % 0 in /  0.0 mm
16:04 82.2 °F /  27.9 °C 53.4 °F /  11.9 °C 29.9 in /  1011.7 hPa SW 4.9 mph /  7.9 km/h 4.9 mph /  7.9 km/h 37 % 0 in /  0.0 mm
16:09 82.4 °F /  28.0 °C 52.9 °F /  11.6 °C 29.9 in /  1011.7 hPa South 3.5 mph /  5.6 km/h 3.5 mph /  5.6 km/h 36 % 0 in /  0.0 mm
16:14 82.4 °F /  28.0 °C 52.9 °F /  11.6 °C 29.9 in /  1011.7 hPa WSW 4.6 mph /  7.4 km/h 4.6 mph /  7.4 km/h 36 % 0 in /  0.0 mm
16:19 82.2 °F /  27.9 °C 53.4 °F /  11.9 °C 29.9 in /  1011.7 hPa WSW 3.8 mph /  6.1 km/h 4.3 mph /  6.9 km/h 37 % 0 in /  0.0 mm
16:24 82.2 °F /  27.9 °C 54.1 °F /  12.3 °C 29.9 in /  1011.7 hPa SSW 4.6 mph /  7.4 km/h 4.6 mph /  7.4 km/h 38 % 0 in /  0.0 mm
16:25 82.4 °F /  28.0 °C 54.1 °F /  12.3 °C 29.9 in /  1011.7 hPa South 4.6 mph /  7.4 km/h 4.6 mph /  7.4 km/h 38 % 0 in /  0.0 mm
16:30 81.5 °F /  27.5 °C 53.4 °F /  11.9 °C 29.9 in /  1011.7 hPa SW 4 mph /  6.4 km/h 4 mph /  6.4 km/h 38 % 0 in /  0.0 mm
16:35 81.1 °F /  27.3 °C 53.8 °F /  12.1 °C 29.9 in /  1011.7 hPa SSW 6.9 mph /  11.1 km/h 6.9 mph /  11.1 km/h 39 % 0 in /  0.0 mm
16:40 81.7 °F /  27.6 °C 54.3 °F /  12.4 °C 29.9 in /  1011.7 hPa South 5.8 mph /  9.3 km/h 5.8 mph /  9.3 km/h 39 % 0 in /  0.0 mm
16:45 81.5 °F /  27.5 °C 54.1 °F /  12.3 °C 29.9 in /  1011.7 hPa SW 5.8 mph /  9.3 km/h 5.8 mph /  9.3 km/h 39 % 0 in /  0.0 mm
16:50 82.2 °F /  27.9 °C 54.9 °F /  12.7 °C 29.9 in /  1011.7 hPa WSW 3 mph /  4.8 km/h 6 mph /  9.7 km/h 39 % 0 in /  0.0 mm
16:55 82.9 °F /  28.3 °C 54.7 °F /  12.6 °C 29.9 in /  1011.7 hPa WSW 2 mph /  3.2 km/h 4 mph /  6.4 km/h 38 % 0 in /  0.0 mm
17:00 83.5 °F /  28.6 °C 55.2 °F /  12.9 °C 29.9 in /  1011.7 hPa WSW 5.8 mph /  9.3 km/h 5.8 mph /  9.3 km/h 38 % 0 in /  0.0 mm
17:05 83.3 °F /  28.5 °C 54.3 °F /  12.4 °C 29.9 in /  1011.7 hPa SW 5.8 mph /  9.3 km/h 5.8 mph /  9.3 km/h 37 % 0 in /  0.0 mm
17:10 83.5 °F /  28.6 °C 54.5 °F /  12.5 °C 29.9 in /  1011.7 hPa SSW 3 mph /  4.8 km/h 7 mph /  11.3 km/h 37 % 0 in /  0.0 mm
17:15 82.2 °F /  27.9 °C 54.1 °F /  12.3 °C 29.9 in /  1011.7 hPa SSE 2.4 mph /  3.9 km/h 2.4 mph /  3.9 km/h 38 % 0 in /  0.0 mm
17:20 81.7 °F /  27.6 °C 55 °F /  12.8 °C 29.9 in /  1011.7 hPa South 4.6 mph /  7.4 km/h 4.6 mph /  7.4 km/h 40 % 0 in /  0.0 mm
17:25 82.2 °F /  27.9 °C 54.9 °F /  12.7 °C 29.8 in /  1010.7 hPa East 4.6 mph /  7.4 km/h 4.6 mph /  7.4 km/h 39 % 0 in /  0.0 mm
17:30 82.6 °F /  28.1 °C 55 °F /  12.8 °C 29.8 in /  1010.7 hPa South 3.8 mph /  6.1 km/h 3.8 mph /  6.1 km/h 39 % 0 in /  0.0 mm
17:35 82 °F /  27.8 °C 54.7 °F /  12.6 °C 29.8 in /  1010.7 hPa SSE 3.5 mph /  5.6 km/h 3.5 mph /  5.6 km/h 39 % 0 in /  0.0 mm
17:40 82.4 °F /  28.0 °C 55 °F /  12.8 °C 29.8 in /  1010.7 hPa West 3.5 mph /  5.6 km/h 3.5 mph /  5.6 km/h 39 % 0 in /  0.0 mm
17:45 82.9 °F /  28.3 °C 55.4 °F /  13.0 °C 29.8 in /  1010.7 hPa SW 2.3 mph /  3.7 km/h 2.3 mph /  3.7 km/h 39 % 0 in /  0.0 mm
17:50 83.3 °F /  28.5 °C 55.8 °F /  13.2 °C 29.8 in /  1010.7 hPa South 3 mph /  4.8 km/h 6 mph /  9.7 km/h 39 % 0 in /  0.0 mm
17:55 82.8 °F /  28.2 °C 55.2 °F /  12.9 °C 29.8 in /  1010.7 hPa SW 5 mph /  8.0 km/h 9 mph /  14.5 km/h 39 % 0 in /  0.0 mm
18:00 83.3 °F /  28.5 °C 56.5 °F /  13.6 °C 29.8 in /  1010.7 hPa SW 4.6 mph /  7.4 km/h 4.6 mph /  7.4 km/h 40 % 0 in /  0.0 mm
18:05 83.3 °F /  28.5 °C 55.8 °F /  13.2 °C 29.8 in /  1010.7 hPa West 3.5 mph /  5.6 km/h 3.8 mph /  6.1 km/h 39 % 0 in /  0.0 mm
18:10 83.1 °F /  28.4 °C 56.3 °F /  13.5 °C 29.8 in /  1010.7 hPa SW 3 mph /  4.8 km/h 7 mph /  11.3 km/h 40 % 0 in /  0.0 mm
18:15 83.3 °F /  28.5 °C 56.5 °F /  13.6 °C 29.8 in /  1010.7 hPa SW 2 mph /  3.2 km/h 6 mph /  9.7 km/h 40 % 0 in /  0.0 mm
18:20 82 °F /  27.8 °C 55.9 °F /  13.3 °C 29.8 in /  1010.7 hPa SSW 6.9 mph /  11.1 km/h 6.9 mph /  11.1 km/h 41 % 0 in /  0.0 mm
18:25 82.4 °F /  28.0 °C 56.3 °F /  13.5 °C 29.9 in /  1011.7 hPa SSW 2 mph /  3.2 km/h 5 mph /  8.0 km/h 41 % 0 in /  0.0 mm
18:30 82.2 °F /  27.9 °C 56.8 °F /  13.8 °C 29.9 in /  1011.7 hPa SSW 2 mph /  3.2 km/h 5 mph /  8.0 km/h 42 % 0 in /  0.0 mm
18:35 81.5 °F /  27.5 °C 56.1 °F /  13.4 °C 29.9 in /  1011.7 hPa WSW 4.6 mph /  7.4 km/h 4.6 mph /  7.4 km/h 42 % 0 in /  0.0 mm
18:40 80.8 °F /  27.1 °C 56.1 °F /  13.4 °C 29.9 in /  1011.7 hPa SW 5 mph /  8.0 km/h 7 mph /  11.3 km/h 43 % 0 in /  0.0 mm
18:45 80.4 °F /  26.9 °C 56.5 °F /  13.6 °C 29.9 in /  1011.7 hPa SSW 2 mph /  3.2 km/h 5 mph /  8.0 km/h 44 % 0 in /  0.0 mm
18:50 81 °F /  27.2 °C 57 °F /  13.9 °C 29.9 in /  1011.7 hPa SSW 2 mph /  3.2 km/h 6 mph /  9.7 km/h 44 % 0 in /  0.0 mm
18:55 80.8 °F /  27.1 °C 57.6 °F /  14.2 °C 29.9 in /  1011.7 hPa SSW 5.8 mph /  9.3 km/h 5.8 mph /  9.3 km/h 45 % 0 in /  0.0 mm
19:00 80.6 °F /  27.0 °C 57.4 °F /  14.1 °C 29.9 in /  1011.7 hPa West 3.1 mph /  5.0 km/h 3.1 mph /  5.0 km/h 45 % 0 in /  0.0 mm
19:05 80.2 °F /  26.8 °C 57.6 °F /  14.2 °C 29.9 in /  1011.7 hPa SW 3 mph /  4.8 km/h 6 mph /  9.7 km/h 46 % 0 in /  0.0 mm
19:10 79.7 °F /  26.5 °C 57.7 °F /  14.3 °C 29.9 in /  1011.7 hPa SW 2 mph /  3.2 km/h 5 mph /  8.0 km/h 47 % 0 in /  0.0 mm
19:15 79.3 °F /  26.3 °C 57.4 °F /  14.1 °C 29.9 in /  1011.7 hPa SW 1 mph /  1.6 km/h 5 mph /  8.0 km/h 47 % 0 in /  0.0 mm
19:20 79 °F /  26.1 °C 57.6 °F /  14.2 °C 29.9 in /  1011.7 hPa WSW 3.5 mph /  5.6 km/h 3.5 mph /  5.6 km/h 48 % 0 in /  0.0 mm
19:25 78.8 °F /  26.0 °C 57.4 °F /  14.1 °C 29.9 in /  1011.7 hPa West 1 mph /  1.6 km/h 3 mph /  4.8 km/h 48 % 0 in /  0.0 mm
19:30 77.9 °F /  25.5 °C 57.2 °F /  14.0 °C 29.9 in /  1011.7 hPa NNW 2 mph /  3.2 km/h 5 mph /  8.0 km/h 49 % 0 in /  0.0 mm
19:35 77 °F /  25.0 °C 57.4 °F /  14.1 °C 29.9 in /  1011.7 hPa East 2 mph /  3.2 km/h 6 mph /  9.7 km/h 51 % 0 in /  0.0 mm
19:40 76.5 °F /  24.7 °C 58.6 °F /  14.8 °C 29.9 in /  1011.7 hPa ESE 8.1 mph /  13.0 km/h 8.1 mph /  13.0 km/h 54 % 0 in /  0.0 mm
19:45 75.7 °F /  24.3 °C 58.5 °F /  14.7 °C 29.9 in /  1011.7 hPa East 5 mph /  8.0 km/h 8 mph /  12.9 km/h 55 % 0 in /  0.0 mm
19:50 75 °F /  23.9 °C 59.2 °F /  15.1 °C 29.9 in /  1011.7 hPa East 8.1 mph /  13.0 km/h 8.1 mph /  13.0 km/h 58 % 0 in /  0.0 mm
19:55 74.7 °F /  23.7 °C 59.9 °F /  15.5 °C 29.9 in /  1011.7 hPa ESE 9.8 mph /  15.8 km/h 9.8 mph /  15.8 km/h 60 % 0 in /  0.0 mm
20:00 74.5 °F /  23.6 °C 59.7 °F /  15.4 °C 29.9 in /  1011.7 hPa ESE 5 mph /  8.0 km/h 10 mph /  16.1 km/h 60 % 0 in /  0.0 mm
20:05 74.3 °F /  23.5 °C 59.5 °F /  15.3 °C 29.9 in /  1011.7 hPa East 3 mph /  4.8 km/h 6 mph /  9.7 km/h 60 % 0 in /  0.0 mm
20:10 74.1 °F /  23.4 °C 59.7 °F /  15.4 °C 29.9 in /  1011.7 hPa East 5 mph /  8.0 km/h 9 mph /  14.5 km/h 61 % 0 in /  0.0 mm
20:15 73.6 °F /  23.1 °C 60.6 °F /  15.9 °C 29.9 in /  1011.7 hPa East 5 mph /  8.0 km/h 8 mph /  12.9 km/h 64 % 0 in /  0.0 mm
20:20 73.4 °F /  23.0 °C 61 °F /  16.1 °C 29.9 in /  1011.7 hPa East 3 mph /  4.8 km/h 8 mph /  12.9 km/h 65 % 0 in /  0.0 mm
20:25 73 °F /  22.8 °C 61 °F /  16.1 °C 29.9 in /  1011.7 hPa East 5 mph /  8.0 km/h 6 mph /  9.7 km/h 66 % 0 in /  0.0 mm
20:30 73 °F /  22.8 °C 61 °F /  16.1 °C 29.9 in /  1011.7 hPa East 5 mph /  8.0 km/h 8 mph /  12.9 km/h 66 % 0 in /  0.0 mm
20:35 72.7 °F /  22.6 °C 61.2 °F /  16.2 °C 29.9 in /  1011.7 hPa East 5 mph /  8.0 km/h 7 mph /  11.3 km/h 67 % 0 in /  0.0 mm
20:40 72.5 °F /  22.5 °C 61.3 °F /  16.3 °C 29.9 in /  1011.7 hPa East 8.1 mph /  13.0 km/h 8.1 mph /  13.0 km/h 68 % 0 in /  0.0 mm
20:45 72.5 °F /  22.5 °C 61.3 °F /  16.3 °C 29.9 in /  1011.7 hPa East 2 mph /  3.2 km/h 6 mph /  9.7 km/h 68 % 0 in /  0.0 mm
20:50 72.5 °F /  22.5 °C 61.3 °F /  16.3 °C 29.9 in /  1011.7 hPa ENE 3 mph /  4.8 km/h 5 mph /  8.0 km/h 68 % 0 in /  0.0 mm
20:55 72.3 °F /  22.4 °C 61.2 °F /  16.2 °C 29.9 in /  1011.7 hPa ENE 2 mph /  3.2 km/h 6 mph /  9.7 km/h 68 % 0 in /  0.0 mm
21:00 72.1 °F /  22.3 °C 60.6 °F /  15.9 °C 29.9 in /  1011.7 hPa ENE 2 mph /  3.2 km/h 5 mph /  8.0 km/h 67 % 0 in /  0.0 mm
21:05 71.8 °F /  22.1 °C 60.3 °F /  15.7 °C 29.9 in /  1011.7 hPa ENE 5 mph /  8.0 km/h 7 mph /  11.3 km/h 67 % 0 in /  0.0 mm
21:06 71.6 °F /  22.0 °C 60.4 °F /  15.8 °C 29.9 in /  1011.7 hPa East 5.8 mph /  9.3 km/h 5.8 mph /  9.3 km/h 68 % 0 in /  0.0 mm
21:10 67.6 °F /  19.8 °C 60.4 °F /  15.8 °C 29.9 in /  1011.7 hPa Calm     78 % 0 in /  0.0 mm
21:11 71.6 °F /  22.0 °C 60.4 °F /  15.8 °C 29.9 in /  1011.7 hPa East 5.8 mph /  9.3 km/h 5.8 mph /  9.3 km/h 68 % 0 in /  0.0 mm
21:16 71.4 °F /  21.9 °C 60.6 °F /  15.9 °C 29.9 in /  1011.7 hPa ENE 4.6 mph /  7.4 km/h 4.6 mph /  7.4 km/h 69 % 0 in /  0.0 mm
21:20 67.3 °F /  19.6 °C 60.4 °F /  15.8 °C 29.9 in /  1011.7 hPa East 1 mph /  1.6 km/h 2 mph /  3.2 km/h 79 % 0 in /  0.0 mm
21:21 71.2 °F /  21.8 °C 61 °F /  16.1 °C 29.9 in /  1011.7 hPa ENE 3.5 mph /  5.6 km/h 3.6 mph /  5.8 km/h 70 % 0 in /  0.0 mm
21:26 71.2 °F /  21.8 °C 60.4 °F /  15.8 °C 29.9 in /  1011.7 hPa North 4.6 mph /  7.4 km/h 4.6 mph /  7.4 km/h 69 % 0 in /  0.0 mm
21:30 66.9 °F /  19.4 °C 60.4 °F /  15.8 °C 29.9 in /  1011.7 hPa ENE 1 mph /  1.6 km/h 2 mph /  3.2 km/h 80 % 0 in /  0.0 mm
21:31 71.1 °F /  21.7 °C 60.8 °F /  16.0 °C 29.9 in /  1011.7 hPa NE 4.6 mph /  7.4 km/h 4.6 mph /  7.4 km/h 70 % 0 in /  0.0 mm
21:36 70.9 °F /  21.6 °C 60.6 °F /  15.9 °C 29.9 in /  1011.7 hPa ENE 3.5 mph /  5.6 km/h 3.6 mph /  5.8 km/h 70 % 0 in /  0.0 mm
21:40 66.7 °F /  19.3 °C 60.6 °F /  15.9 °C 29.8 in /  1010.7 hPa NE 1 mph /  1.6 km/h 2 mph /  3.2 km/h 81 % 0 in /  0.0 mm
21:41 70.7 °F /  21.5 °C 60.4 °F /  15.8 °C 29.9 in /  1012.8 hPa ESE 2.3 mph /  3.7 km/h 2.3 mph /  3.7 km/h 70 % 0 in /  0.0 mm
21:46 70.7 °F /  21.5 °C 60.4 °F /  15.8 °C 29.9 in /  1012.8 hPa ENE 4.7 mph /  7.6 km/h 4.7 mph /  7.6 km/h 70 % 0 in /  0.0 mm
21:50 66.7 °F /  19.3 °C 61.2 °F /  16.2 °C 29.8 in /  1010.7 hPa Calm   1 mph /  1.6 km/h 82 % 0 in /  0.0 mm
21:51 70.5 °F /  21.4 °C 60.3 °F /  15.7 °C 29.9 in /  1012.8 hPa NE 3.5 mph /  5.6 km/h 3.5 mph /  5.6 km/h 70 % 0 in /  0.0 mm
21:56 70.3 °F /  21.3 °C 60.1 °F /  15.6 °C 29.9 in /  1013.8 hPa ENE 4.6 mph /  7.4 km/h 4.6 mph /  7.4 km/h 70 % 0 in /  0.0 mm
22:00 66.7 °F /  19.3 °C 61.2 °F /  16.2 °C 29.9 in /  1011.7 hPa NNE 1 mph /  1.6 km/h 1 mph /  1.6 km/h 82 % 0 in /  0.0 mm
22:01 70.2 °F /  21.2 °C 60.3 °F /  15.7 °C 29.9 in /  1013.8 hPa East 4 mph /  6.4 km/h 4 mph /  6.4 km/h 71 % 0 in /  0.0 mm
22:06 70 °F /  21.1 °C 60.1 °F /  15.6 °C 29.9 in /  1013.8 hPa ESE 4.6 mph /  7.4 km/h 4.6 mph /  7.4 km/h 71 % 0 in /  0.0 mm
22:10 66.7 °F /  19.3 °C 61.3 °F /  16.3 °C 29.9 in /  1011.7 hPa Calm     83 % 0 in /  0.0 mm
22:11 69.8 °F /  21.0 °C 60.1 °F /  15.6 °C 29.9 in /  1012.8 hPa NNE 3.5 mph /  5.6 km/h 3.5 mph /  5.6 km/h 71 % 0 in /  0.0 mm
22:16 69.8 °F /  21.0 °C 60.1 °F /  15.6 °C 29.9 in /  1012.8 hPa East 3.5 mph /  5.6 km/h 3.5 mph /  5.6 km/h 71 % 0 in /  0.0 mm
22:20 66.7 °F /  19.3 °C 61.3 °F /  16.3 °C 29.9 in /  1011.7 hPa West 1 mph /  1.6 km/h 2 mph /  3.2 km/h 83 % 0 in /  0.0 mm
22:21 69.8 °F /  21.0 °C 60.4 °F /  15.8 °C 29.9 in /  1012.8 hPa ENE 3.5 mph /  5.6 km/h 3.5 mph /  5.6 km/h 72 % 0 in /  0.0 mm
22:26 69.8 °F /  21.0 °C 60.1 °F /  15.6 °C 29.9 in /  1012.8 hPa NNE 3.6 mph /  5.8 km/h 3.6 mph /  5.8 km/h 71 % 0 in /  0.0 mm
22:30 66.6 °F /  19.2 °C 61.5 °F /  16.4 °C 29.9 in /  1011.7 hPa Calm   1 mph /  1.6 km/h 84 % 0 in /  0.0 mm
22:31 69.6 °F /  20.9 °C 60.3 °F /  15.7 °C 29.9 in /  1012.8 hPa North 3.5 mph /  5.6 km/h 3.5 mph /  5.6 km/h 72 % 0 in /  0.0 mm
22:36 69.6 °F /  20.9 °C 60.3 °F /  15.7 °C 29.9 in /  1012.8 hPa ESE 4 mph /  6.4 km/h 4 mph /  6.4 km/h 72 % 0 in /  0.0 mm
22:40 66.7 °F /  19.3 °C 62.1 °F /  16.7 °C 29.9 in /  1011.7 hPa NNE 1 mph /  1.6 km/h 2 mph /  3.2 km/h 85 % 0 in /  0.0 mm
22:41 69.4 °F /  20.8 °C 60.4 °F /  15.8 °C 29.9 in /  1012.8 hPa East 2.3 mph /  3.7 km/h 2.3 mph /  3.7 km/h 73 % 0 in /  0.0 mm
22:46 69.4 °F /  20.8 °C 60.1 °F /  15.6 °C 29.9 in /  1012.8 hPa ENE 2.6 mph /  4.2 km/h 2.6 mph /  4.2 km/h 72 % 0 in /  0.0 mm
22:50 66.6 °F /  19.2 °C 61.9 °F /  16.6 °C 29.9 in /  1011.7 hPa Calm   2 mph /  3.2 km/h 85 % 0 in /  0.0 mm
22:51 69.3 °F /  20.7 °C 59.7 °F /  15.4 °C 29.9 in /  1012.8 hPa East 4.6 mph /  7.4 km/h 4.6 mph /  7.4 km/h 72 % 0 in /  0.0 mm
22:56 69.1 °F /  20.6 °C 60.1 °F /  15.6 °C 29.9 in /  1012.8 hPa East 2.4 mph /  3.9 km/h 2.4 mph /  3.9 km/h 73 % 0 in /  0.0 mm
23:00 66.2 °F /  19.0 °C 61.5 °F /  16.4 °C 29.8 in /  1010.7 hPa Calm   2 mph /  3.2 km/h 85 % 0 in /  0.0 mm
23:01 69.1 °F /  20.6 °C 60.1 °F /  15.6 °C 29.9 in /  1012.8 hPa ENE 2.3 mph /  3.7 km/h 2.3 mph /  3.7 km/h 73 % 0 in /  0.0 mm
23:06 68.9 °F /  20.5 °C 59.9 °F /  15.5 °C 29.9 in /  1012.8 hPa NNE 3.6 mph /  5.8 km/h 3.6 mph /  5.8 km/h 73 % 0 in /  0.0 mm
23:10 66.2 °F /  19.0 °C 61.9 °F /  16.6 °C 29.9 in /  1011.7 hPa SSW 1 mph /  1.6 km/h 2 mph /  3.2 km/h 86 % 0 in /  0.0 mm
23:11 68.9 °F /  20.5 °C 59.9 °F /  15.5 °C 29.9 in /  1012.8 hPa NNE 3.5 mph /  5.6 km/h 3.5 mph /  5.6 km/h 73 % 0 in /  0.0 mm
23:16 68.9 °F /  20.5 °C 59.9 °F /  15.5 °C 29.9 in /  1012.8 hPa NE 3.5 mph /  5.6 km/h 3.5 mph /  5.6 km/h 73 % 0 in /  0.0 mm
23:20 66.2 °F /  19.0 °C 61.5 °F /  16.4 °C 29.9 in /  1011.7 hPa North 2 mph /  3.2 km/h 2 mph /  3.2 km/h 85 % 0 in /  0.0 mm
23:21 68.9 °F /  20.5 °C 59.9 °F /  15.5 °C 29.9 in /  1012.8 hPa East 2.3 mph /  3.7 km/h 2.4 mph /  3.9 km/h 73 % 0 in /  0.0 mm
23:26 68.7 °F /  20.4 °C 59.7 °F /  15.4 °C 29.9 in /  1013.8 hPa NE 2.3 mph /  3.7 km/h 2.3 mph /  3.7 km/h 73 % 0 in /  0.0 mm
23:30 66 °F /  18.9 °C 61.3 °F /  16.3 °C 29.9 in /  1012.8 hPa WNW 2 mph /  3.2 km/h 2 mph /  3.2 km/h 85 % 0 in /  0.0 mm
23:31 68.7 °F /  20.4 °C 59.7 °F /  15.4 °C 29.9 in /  1013.8 hPa NNE 3.5 mph /  5.6 km/h 3.5 mph /  5.6 km/h 73 % 0 in /  0.0 mm
23:36 68.7 °F /  20.4 °C 60.1 °F /  15.6 °C 29.9 in /  1013.8 hPa NE 3.5 mph /  5.6 km/h 3.5 mph /  5.6 km/h 74 % 0 in /  0.0 mm
23:40 66 °F /  18.9 °C 62.1 °F /  16.7 °C 29.9 in /  1011.7 hPa Calm   1 mph /  1.6 km/h 87 % 0 in /  0.0 mm
23:41 68.7 °F /  20.4 °C 60.1 °F /  15.6 °C 29.9 in /  1012.8 hPa NE 2.3 mph /  3.7 km/h 2.3 mph /  3.7 km/h 74 % 0 in /  0.0 mm
23:46 68.7 °F /  20.4 °C 60.1 °F /  15.6 °C 29.9 in /  1012.8 hPa ESE 2.3 mph /  3.7 km/h 2.3 mph /  3.7 km/h 74 % 0 in /  0.0 mm
23:50 66 °F /  18.9 °C 62.1 °F /  16.7 °C 29.9 in /  1011.7 hPa NW 1 mph /  1.6 km/h 2 mph /  3.2 km/h 87 % 0 in /  0.0 mm
23:51 68.5 °F /  20.3 °C 59.9 °F /  15.5 °C 29.9 in /  1012.8 hPa East 2.3 mph /  3.7 km/h 2.3 mph /  3.7 km/h 74 % 0 in /  0.0 mm
23:56 68.5 °F /  20.3 °C 59.9 °F /  15.5 °C 29.9 in /  1012.8 hPa South 1.2 mph /  1.9 km/h   74 % 0 in /  0.0 mm
Meteo Sesrovires
Elogis d' Weather Underground - 3.75 mb

Guio original per  Jim McMurry - jmcmurry@mwt.net Adaptat per a la plantilla per  Wim van der Kuil - Leuven-Template.eu

Trobareu la nostra informacio del temps tambe a:

Weather Underground

AWEKAS